Time;durP1;ratioP1;P1;durP2;ratioP2;P2;SDS_P1;SDS_P2;PMS_P1;PMS_P2;Temp;Humidity;BMP_temperature;BMP_pressure;BME280_temperature;BME280_humidity;BME280_pressure;Samples;Min_cycle;Max_cycle;Signal;HPM_P1;HPM_P2
2023/10/20 00:00:37;;;;;;;3.65;3.33;;;;;;;13.47;100.00;97797.97;4971105;28;20283;-59
2023/10/20 00:03:02;;;;;;;2.60;2.50;;;;;;;13.31;100.00;97760.50;4971090;28;20328;-60
2023/10/20 00:05:28;;;;;;;3.42;2.50;;;;;;;13.50;100.00;97794.28;4917747;29;20194;-59
2023/10/20 00:07:53;;;;;;;3.85;3.03;;;;;;;13.28;100.00;97779.78;4913532;29;20194;-59
2023/10/20 00:10:19;;;;;;;3.42;2.72;;;;;;;13.38;100.00;97788.41;4913510;29;20734;-59
2023/10/20 00:12:44;;;;;;;3.08;2.55;;;;;;;13.50;100.00;97800.31;4919837;28;20561;-60
2023/10/20 00:15:13;;;;;;;2.58;2.38;;;;;;;13.57;100.00;97803.16;4970635;28;20232;-60
2023/10/20 00:21:00;;;;;;;2.97;2.72;;;;;;;13.69;100.00;97804.66;5009919;28;20205;-60
2023/10/20 00:23:25;;;;;;;2.60;2.47;;;;;;;13.46;100.00;97779.91;5009758;28;20191;-59
2023/10/20 00:25:51;;;;;;;3.38;2.83;;;;;;;13.47;100.00;97799.75;5015563;28;20336;-60
2023/10/20 00:28:16;;;;;;;2.78;2.58;;;;;;;13.40;100.00;97791.69;5049207;28;20520;-58
2023/10/20 00:30:42;;;;;;;2.70;2.50;;;;;;;13.45;100.00;97786.91;5049223;28;20228;-59
2023/10/20 00:33:07;;;;;;;5.00;3.10;;;;;;;13.45;100.00;97773.06;5049163;28;20364;-59
2023/10/20 00:35:33;;;;;;;3.72;3.28;;;;;;;13.46;100.00;97769.50;5056850;28;20292;-59
2023/10/20 00:37:59;;;;;;;2.97;2.78;;;;;;;13.53;100.00;97787.03;5112199;28;20210;-59
2023/10/20 00:40:25;;;;;;;3.05;2.85;;;;;;;13.65;100.00;97816.31;5111844;28;20212;-59
2023/10/20 00:42:51;;;;;;;4.50;3.10;;;;;;;13.41;100.00;97788.13;5111971;28;20183;-59
2023/10/20 00:45:16;;;;;;;5.22;3.00;;;;;;;13.23;100.00;97760.34;5112053;28;20244;-60
2023/10/20 00:47:44;;;;;;;2.90;2.70;;;;;;;13.42;100.00;97794.97;5112058;28;20179;-59
2023/10/20 00:50:13;;;;;;;3.58;3.28;;;;;;;13.17;100.00;97786.88;5112222;28;20172;-59
2023/10/20 00:52:41;;;;;;;4.03;3.40;;;;;;;13.11;100.00;97774.44;5111932;28;20171;-59
2023/10/20 00:55:08;;;;;;;4.00;3.70;;;;;;;13.09;100.00;97778.97;5111772;28;20641;-59
2023/10/20 00:57:34;;;;;;;5.10;3.90;;;;;;;12.98;100.00;97766.09;5111886;28;20359;-59
2023/10/20 01:00:00;;;;;;;4.03;3.72;;;;;;;12.97;100.00;97757.50;5111843;28;20194;-59
2023/10/20 01:02:25;;;;;;;7.30;3.65;;;;;;;12.95;100.00;97759.41;5111719;28;20634;-59
2023/10/20 01:04:51;;;;;;;4.25;3.85;;;;;;;13.18;100.00;97780.75;5111693;28;20199;-60
2023/10/20 01:07:16;;;;;;;4.30;3.90;;;;;;;13.09;100.00;97773.75;5111723;28;20547;-59
2023/10/20 01:09:42;;;;;;;6.88;4.20;;;;;;;12.86;100.00;97751.56;5111581;28;20199;-59
2023/10/20 01:12:08;;;;;;;3.35;3.05;;;;;;;12.98;100.00;97769.53;5111350;28;20182;-59
2023/10/20 01:14:35;;;;;;;3.33;2.95;;;;;;;13.10;100.00;97786.63;5088239;28;20236;-59
2023/10/20 01:17:01;;;;;;;5.63;2.53;;;;;;;12.81;100.00;97738.16;5048311;28;20209;-59
2023/10/20 01:19:27;;;;;;;4.30;2.80;;;;;;;12.78;100.00;97736.66;5048405;28;20241;-59
2023/10/20 01:21:52;;;;;;;5.85;2.47;;;;;;;12.93;100.00;97760.44;5048358;28;20264;-59
2023/10/20 01:24:17;;;;;;;2.70;2.50;;;;;;;12.84;100.00;97763.88;5048276;28;20178;-59
2023/10/20 01:26:43;;;;;;;3.15;2.20;;;;;;;12.59;100.00;97725.44;5048224;28;20196;-59
2023/10/20 01:29:12;;;;;;;2.35;2.20;;;;;;;12.58;100.00;97760.13;5048365;28;20210;-59
2023/10/20 01:31:38;;;;;;;4.70;2.28;;;;;;;12.27;100.00;97715.28;5048234;28;20189;-59
2023/10/20 01:34:04;;;;;;;3.25;2.80;;;;;;;12.37;100.00;97762.00;5048179;28;20673;-59
2023/10/20 01:36:29;;;;;;;2.75;2.40;;;;;;;12.30;100.00;97751.31;5048065;28;20309;-59
2023/10/20 01:38:54;;;;;;;3.13;2.88;;;;;;;12.32;100.00;97757.19;5048219;28;20182;-60
2023/10/20 01:41:20;;;;;;;3.08;2.50;;;;;;;12.04;100.00;97715.59;5047545;28;20676;-59
2023/10/20 01:43:45;;;;;;;2.83;2.63;;;;;;;11.94;100.00;97712.97;5048104;28;20379;-59
2023/10/20 01:46:11;;;;;;;3.55;3.28;;;;;;;11.93;100.00;97726.06;5048041;28;20284;-59
2023/10/20 01:48:36;;;;;;;5.65;3.00;;;;;;;11.95;100.00;97724.13;5078623;28;20273;-59
2023/10/20 01:51:01;;;;;;;2.92;2.67;;;;;;;12.23;100.00;97759.75;5090837;28;20176;-59
2023/10/20 01:53:27;;;;;;;3.83;2.75;;;;;;;12.26;100.00;97769.88;5111053;28;20633;-59
2023/10/20 01:55:53;;;;;;;5.45;3.60;;;;;;;12.29;100.00;97767.00;5110779;28;20661;-60
2023/10/20 01:58:19;;;;;;;3.92;3.03;;;;;;;11.97;100.00;97728.25;5111085;28;20167;-59
2023/10/20 02:00:49;;;;;;;7.10;3.88;;;;;;;12.15;100.00;97744.03;5110864;28;20180;-59
2023/10/20 02:03:14;;;;;;;7.30;4.30;;;;;;;12.22;100.00;97748.56;5111060;28;20176;-59
2023/10/20 02:05:40;;;;;;;5.13;4.63;;;;;;;12.13;100.00;97744.16;5110980;28;20263;-59
2023/10/20 02:08:08;;;;;;;6.22;4.85;;;;;;;12.49;100.00;97786.88;5111329;28;20176;-59
2023/10/20 02:10:34;;;;;;;9.25;5.07;;;;;;;12.32;100.00;97753.78;5110907;28;20183;-59
2023/10/20 02:13:00;;;;;;;4.93;4.45;;;;;;;12.33;100.00;97752.81;5110749;28;20183;-59
2023/10/20 02:15:25;;;;;;;5.68;4.55;;;;;;;12.53;100.00;97783.03;5110796;28;20207;-60
2023/10/20 02:17:51;;;;;;;6.65;4.78;;;;;;;12.35;100.00;97762.13;5087864;28;20180;-60
2023/10/20 02:20:20;;;;;;;6.95;4.93;;;;;;;12.50;100.00;97778.97;5088036;28;20278;-60
2023/10/20 02:22:49;;;;;;;8.85;5.45;;;;;;;12.42;100.00;97760.63;5088016;28;20235;-60
2023/10/20 02:25:15;;;;;;;5.07;4.57;;;;;;;12.39;100.00;97749.69;5087915;28;20230;-60
2023/10/20 02:27:42;;;;;;;7.85;5.43;;;;;;;12.62;100.00;97777.06;5087919;28;20180;-60
2023/10/20 02:30:09;;;;;;;6.25;4.97;;;;;;;12.33;100.00;97765.78;5087805;28;20197;-60
2023/10/20 02:32:35;;;;;;;8.10;4.43;;;;;;;12.08;100.00;97719.56;5087874;28;20188;-60
2023/10/20 02:35:01;;;;;;;3.67;3.38;;;;;;;12.32;100.00;97744.22;5087781;28;20204;-60
2023/10/20 02:37:26;;;;;;;6.30;3.30;;;;;;;12.29;100.00;97759.22;5087896;28;20181;-59
2023/10/20 02:39:52;;;;;;;5.35;3.50;;;;;;;12.01;100.00;97714.06;5087746;28;20184;-59
2023/10/20 02:42:17;;;;;;;3.88;3.03;;;;;;;12.18;100.00;97730.78;5087839;28;20188;-59
2023/10/20 02:44:43;;;;;;;6.03;3.10;;;;;;;12.20;100.00;97700.38;5087805;28;20176;-59
2023/10/20 02:47:08;;;;;;;2.65;2.45;;;;;;;12.07;100.00;97687.63;5087755;28;20172;-59
2023/10/20 02:49:35;;;;;;;3.85;2.83;;;;;;;12.20;100.00;97715.94;5087734;28;20711;-59
2023/10/20 02:52:01;;;;;;;2.72;2.53;;;;;;;12.30;100.00;97724.53;5087760;28;20176;-59
2023/10/20 02:54:26;;;;;;;7.20;2.80;;;;;;;12.16;100.00;97692.03;5094661;28;20194;-59
2023/10/20 02:56:51;;;;;;;2.72;2.22;;;;;;;12.09;100.00;97674.53;5114105;28;20634;-60
2023/10/20 02:59:17;;;;;;;2.97;2.60;;;;;;;12.14;100.00;97674.97;5114120;28;20178;-59
2023/10/20 03:01:43;;;;;;;2.85;2.63;;;;;;;12.29;100.00;97712.53;5114014;28;20600;-59
2023/10/20 03:04:11;;;;;;;4.00;2.55;;;;;;;12.15;100.00;97674.84;5113901;28;20293;-59
2023/10/20 03:06:37;;;;;;;3.38;2.72;;;;;;;12.10;100.00;97656.25;5113996;28;20172;-59
2023/10/20 03:09:03;;;;;;;3.47;2.60;;;;;;;12.00;100.00;97652.81;5113944;28;20179;-59
2023/10/20 03:11:28;;;;;;;4.40;3.00;;;;;;;12.16;100.00;97681.66;5070503;28;20189;-59
2023/10/20 03:13:54;;;;;;;5.65;3.05;;;;;;;11.91;100.00;97650.19;5070527;28;20286;-59
2023/10/20 03:16:19;;;;;;;4.38;2.45;;;;;;;12.17;100.00;97692.84;5070501;28;20212;-59
2023/10/20 03:18:44;;;;;;;4.47;2.65;;;;;;;12.21;100.00;97700.25;5070725;28;20594;-59
2023/10/20 03:21:10;;;;;;;3.55;2.53;;;;;;;12.07;100.00;97686.81;5070551;28;20190;-61
2023/10/20 03:23:36;;;;;;;7.55;2.58;;;;;;;12.37;100.00;97728.25;5070485;28;20185;-59
2023/10/20 03:26:02;;;;;;;6.13;2.78;;;;;;;12.37;100.00;97720.47;5070503;28;20192;-59
2023/10/20 03:28:28;;;;;;;6.72;2.72;;;;;;;12.04;100.00;97674.94;5070436;28;20181;-59
2023/10/20 03:30:53;;;;;;;6.22;3.40;;;;;;;12.29;100.00;97713.34;5070330;28;20184;-59
2023/10/20 03:33:19;;;;;;;7.00;3.10;;;;;;;12.34;100.00;97710.34;5070399;28;20311;-59
2023/10/20 03:35:44;;;;;;;14.38;3.00;;;;;;;12.27;100.00;97719.63;5070186;28;20208;-59
2023/10/20 03:38:10;;;;;;;8.25;3.55;;;;;;;12.16;100.00;97701.56;5070255;28;20251;-60
2023/10/20 03:40:37;;;;;;;6.75;3.53;;;;;;;12.06;100.00;97677.38;5070154;28;20181;-60
2023/10/20 03:43:08;;;;;;;9.13;3.60;;;;;;;12.03;100.00;97662.91;5044898;28;20744;-60
2023/10/20 03:45:51;;;;;;;4.30;2.92;;;;;;;12.22;100.00;97672.50;5050166;28;20200;-60
2023/10/20 03:48:19;;;;;;;4.47;2.83;;;;;;;12.06;100.00;97670.44;5050198;28;20185;-60
2023/10/20 03:50:47;;;;;;;4.18;2.75;;;;;;;12.01;100.00;97684.75;5050011;28;20670;-60
2023/10/20 03:53:22;;;;;;;4.72;2.85;;;;;;;11.97;100.00;97691.16;5049932;28;20299;-60
2023/10/20 03:55:59;;;;;;;8.90;3.38;;;;;;;12.02;100.00;97720.09;5050019;28;20288;-60
2023/10/20 03:58:27;;;;;;;4.70;2.83;;;;;;;11.76;100.00;97688.59;5049966;28;20251;-60
2023/10/20 04:00:54;;;;;;;5.85;3.10;;;;;;;11.99;100.00;97718.59;5049889;28;20186;-60
2023/10/20 04:03:20;;;;;;;3.97;3.22;;;;;;;11.82;100.00;97682.06;5049409;28;20220;-59
2023/10/20 04:05:45;;;;;;;5.80;4.75;;;;;;;11.89;100.00;97678.84;5029665;28;20684;-59
2023/10/20 04:08:10;;;;;;;7.55;4.63;;;;;;;11.88;100.00;97678.94;5029807;28;20187;-60
2023/10/20 04:10:36;;;;;;;5.05;4.65;;;;;;;12.10;100.00;97707.28;5029802;28;20273;-59
2023/10/20 04:13:03;;;;;;;6.55;4.32;;;;;;;11.92;100.00;97688.97;5032840;28;20321;-60
2023/10/20 04:15:32;;;;;;;10.30;5.50;;;;;;;12.29;100.00;97738.47;5069344;28;20256;-60
2023/10/20 04:17:58;;;;;;;6.53;5.40;;;;;;;12.29;100.00;97728.09;5069498;28;20272;-60
2023/10/20 04:20:24;;;;;;;7.28;5.25;;;;;;;12.10;100.00;97707.28;5069387;28;20189;-60
2023/10/20 04:22:49;;;;;;;7.85;5.53;;;;;;;12.06;100.00;97721.47;5069312;28;20726;-60
2023/10/20 04:25:19;;;;;;;9.88;5.78;;;;;;;11.92;100.00;97716.63;5069259;28;20263;-59
2023/10/20 04:54:51;;;;;;;7.25;4.28;;;;;;;11.51;100.00;97708.91;5028931;28;20178;-60
2023/10/20 04:57:40;;;;;;;5.50;4.60;;;;;;;11.61;100.00;97709.81;5028890;28;20285;-60
2023/10/20 05:05:15;;;;;;;10.05;4.95;;;;;;;11.92;100.00;97745.97;5028601;28;20766;-60
2023/10/20 05:07:49;;;;;;;7.22;4.88;;;;;;;11.83;100.00;97720.81;5028978;28;20188;-58
2023/10/20 05:10:14;;;;;;;9.45;4.65;;;;;;;12.00;100.00;97747.91;5028907;28;20293;-59
2023/10/20 05:12:40;;;;;;;11.68;5.53;;;;;;;11.91;100.00;97741.72;5028817;28;20265;-59
2023/10/20 05:15:07;;;;;;;8.65;4.72;;;;;;;11.82;100.00;97721.78;5027859;28;20241;-59
2023/10/20 05:17:34;;;;;;;5.03;4.53;;;;;;;12.02;100.00;97748.63;5028941;28;20642;-59
2023/10/20 05:19:59;;;;;;;6.60;4.57;;;;;;;12.01;100.00;97747.78;5028766;28;20661;-59
2023/10/20 05:22:26;;;;;;;9.70;4.45;;;;;;;12.10;100.00;97744.44;5040484;28;20186;-59
2023/10/20 05:24:51;;;;;;;12.55;4.70;;;;;;;11.92;100.00;97709.69;5111458;28;20182;-60
2023/10/20 05:27:17;;;;;;;8.85;4.30;;;;;;;12.17;100.00;97739.50;5111197;28;20176;-60
2023/10/20 05:29:42;;;;;;;4.20;3.80;;;;;;;12.12;100.00;97715.75;5111310;28;20203;-60
2023/10/20 05:32:07;;;;;;;7.57;3.53;;;;;;;12.20;100.00;97708.16;5111669;28;20164;-60
2023/10/20 05:34:34;;;;;;;6.72;3.60;;;;;;;12.34;100.00;97716.38;5111375;28;20195;-60
2023/10/20 05:37:00;;;;;;;8.82;3.25;;;;;;;12.58;100.00;97729.81;5111417;28;20176;-60
2023/10/20 05:39:25;;;;;;;4.68;2.88;;;;;;;12.38;100.00;97696.97;5111495;28;20679;-59
2023/10/20 05:41:50;;;;;;;7.47;3.55;;;;;;;12.54;100.00;97725.03;5111502;28;20198;-60
2023/10/20 05:44:21;;;;;;;5.50;3.50;;;;;;;12.44;100.00;97711.22;5111360;28;20534;-60
2023/10/20 05:46:47;;;;;;;4.75;3.25;;;;;;;12.45;100.00;97713.69;5111489;28;20180;-60
2023/10/20 05:49:13;;;;;;;6.07;2.83;;;;;;;12.48;100.00;97733.34;5067312;28;20208;-60
2023/10/20 05:51:38;;;;;;;10.48;3.55;;;;;;;12.51;100.00;97728.72;5067868;28;20241;-60
2023/10/20 05:54:04;;;;;;;6.65;2.92;;;;;;;12.45;100.00;97705.91;5067954;28;20257;-60
2023/10/20 05:56:29;;;;;;;9.52;3.15;;;;;;;12.66;100.00;97724.75;5067912;28;20231;-60
2023/10/20 05:58:55;;;;;;;3.15;2.65;;;;;;;12.63;100.00;97706.03;5067952;28;20500;-59
2023/10/20 06:01:21;;;;;;;10.57;3.30;;;;;;;12.71;100.00;97734.75;5067867;28;20193;-60
2023/10/20 06:03:46;;;;;;;8.23;5.05;;;;;;;12.71;100.00;97721.78;5067904;28;20698;-60
2023/10/20 06:06:11;;;;;;;17.58;8.52;;;;;;;12.76;100.00;97719.56;5067794;28;20173;-60
2023/10/20 06:08:37;;;;;;;16.85;11.43;;;;;;;12.98;100.00;97733.16;5067897;28;20192;-60
2023/10/20 06:11:03;;;;;;;21.25;13.05;;;;;;;13.20;100.00;97753.69;5047704;28;20185;-59
2023/10/20 06:13:34;;;;;;;23.75;13.77;;;;;;;13.28;100.00;97750.38;5047105;28;20213;-60
2023/10/20 06:16:08;;;;;;;20.08;13.80;;;;;;;13.37;100.00;97749.56;5027819;28;20222;-60
2023/10/20 06:18:38;;;;;;;24.10;16.27;;;;;;;13.06;100.00;97714.31;5027899;28;20178;-60
2023/10/20 06:21:04;;;;;;;25.45;15.98;;;;;;;13.17;100.00;97716.75;5027615;28;20288;-60
2023/10/20 06:23:30;;;;;;;24.50;15.90;;;;;;;13.23;100.00;97714.44;5027738;28;20209;-59
2023/10/20 06:25:59;;;;;;;30.02;15.82;;;;;;;13.57;100.00;97757.19;4996180;28;20665;-60
2023/10/20 06:28:24;;;;;;;28.67;16.38;;;;;;;13.68;100.00;97766.63;5031352;28;20712;-60
2023/10/20 06:30:51;;;;;;;27.90;15.40;;;;;;;13.62;100.00;97743.78;5031437;28;20282;-60
2023/10/20 06:33:17;;;;;;;22.08;14.88;;;;;;;13.72;100.00;97739.38;5031454;28;20277;-60
2023/10/20 06:35:52;;;;;;;21.45;14.80;;;;;;;13.81;100.00;97748.94;5031347;28;20214;-60
2023/10/20 06:41:09;;;;;;;21.15;14.45;;;;;;;13.95;100.00;97745.88;5010177;28;20191;-60
2023/10/20 06:43:34;;;;;;;19.13;13.93;;;;;;;13.98;100.00;97756.00;5009857;28;20213;-58
2023/10/20 06:46:00;;;;;;;19.58;15.32;;;;;;;13.98;100.00;97746.44;5010812;28;20529;-59
2023/10/20 06:48:26;;;;;;;23.30;13.07;;;;;;;14.00;100.00;97754.09;5031157;28;20664;-61
2023/10/20 06:50:53;;;;;;;16.00;11.85;;;;;;;14.31;100.00;97784.13;5011324;28;20222;-60
2023/10/20 06:53:18;;;;;;;21.77;12.65;;;;;;;14.33;100.00;97771.78;5011438;28;20578;-60
2023/10/20 06:55:46;;;;;;;19.65;13.68;;;;;;;14.44;100.00;97774.19;5011579;28;20215;-60
2023/10/20 06:58:12;;;;;;;22.50;13.07;;;;;;;14.41;100.00;97759.69;5031171;28;20283;-60
2023/10/20 07:00:38;;;;;;;22.83;15.23;;;;;;;14.59;100.00;97781.38;5031160;28;20731;-59
2023/10/20 07:03:04;;;;;;;23.83;15.05;;;;;;;14.41;100.00;97748.47;5031097;28;20190;-59
2023/10/20 07:05:31;;;;;;;27.00;15.68;;;;;;;14.69;100.00;97783.97;5030890;28;20202;-59
2023/10/20 07:07:59;;;;;;;30.73;15.88;;;;;;;14.53;100.00;97758.53;5030951;28;20194;-59
2023/10/20 07:10:32;;;;;;;30.45;15.43;;;;;;;14.67;100.00;97750.25;5030832;28;20256;-60
2023/10/20 07:12:57;;;;;;;29.10;14.18;;;;;;;15.01;100.00;97794.72;5014306;28;20194;-60
2023/10/20 07:15:23;;;;;;;23.20;13.93;;;;;;;15.07;100.00;97796.72;5010791;28;20331;-60
2023/10/20 07:17:48;;;;;;;29.67;13.77;;;;;;;15.20;100.00;97805.00;5010696;28;20604;-60
2023/10/20 07:20:14;;;;;;;23.13;13.20;;;;;;;15.20;100.00;97794.56;4991087;28;20270;-60
2023/10/20 07:22:39;;;;;;;25.67;14.05;;;;;;;15.32;100.00;97788.16;5011512;28;20209;-60
2023/10/20 07:25:05;;;;;;;21.30;12.90;;;;;;;15.42;100.00;97797.59;5017862;28;20191;-60
2023/10/20 07:27:31;;;;;;;18.70;12.18;;;;;;;15.27;100.00;97764.34;5010612;28;20198;-60
2023/10/20 07:29:57;;;;;;;16.27;11.60;;;;;;;15.31;100.00;97758.69;5010628;28;20198;-60
2023/10/20 07:32:22;;;;;;;21.25;12.55;;;;;;;15.50;100.00;97791.59;5010574;28;20929;-60
2023/10/20 07:34:48;;;;;;;22.33;12.82;;;;;;;15.36;100.00;97759.09;5010331;28;20680;-60
2023/10/20 07:37:13;;;;;;;18.50;12.05;;;;;;;15.42;100.00;97757.66;5010478;28;20700;-60
2023/10/20 07:39:39;;;;;;;17.10;11.95;;;;;;;15.70;100.00;97804.34;5009562;28;20317;-60
2023/10/20 07:42:05;;;;;;;19.35;11.20;;;;;;;15.68;100.00;97787.22;5010448;28;20191;-60
2023/10/20 07:44:30;;;;;;;18.00;11.52;;;;;;;15.65;100.00;97779.69;5010330;28;20315;-61
2023/10/20 07:46:55;;;;;;;25.30;13.18;;;;;;;15.89;100.00;97798.13;5004744;28;20195;-60
2023/10/20 07:49:21;;;;;;;25.80;12.45;;;;;;;15.97;100.00;97809.44;5024609;28;20246;-60
2023/10/20 07:51:47;;;;;;;22.73;12.70;;;;;;;16.07;100.00;97799.72;5059008;28;20284;-60
2023/10/20 07:54:12;;;;;;;22.23;12.70;;;;;;;15.82;100.00;97750.13;5069723;28;20311;-60
2023/10/20 07:56:38;;;;;;;22.48;13.48;;;;;;;16.03;100.00;97774.88;5069631;28;20343;-62
2023/10/20 07:59:04;;;;;;;19.40;12.60;;;;;;;16.00;100.00;97761.34;5069750;28;20234;-61
2023/10/20 08:01:29;;;;;;;23.15;11.38;;;;;;;16.08;100.00;97753.53;5069625;28;20192;-61
2023/10/20 08:03:55;;;;;;;25.60;13.70;;;;;;;16.39;100.00;97789.47;5069666;28;20228;-61
2023/10/20 08:06:20;;;;;;;22.77;12.32;;;;;;;16.32;99.22;97758.91;5069662;28;20213;-61
2023/10/20 08:08:46;;;;;;;17.23;13.65;;;;;;;16.54;98.36;97793.13;5069531;28;20180;-60
2023/10/20 08:11:11;;;;;;;21.13;12.25;;;;;;;16.57;97.05;97789.41;5069590;28;20289;-60
2023/10/20 08:13:37;;;;;;;21.00;11.73;;;;;;;16.53;96.11;97768.00;5036030;28;20703;-60
2023/10/20 08:16:05;;;;;;;18.33;11.82;;;;;;;16.74;94.72;97783.25;5069166;28;20222;-59
2023/10/20 08:18:33;;;;;;;15.50;11.43;;;;;;;16.63;94.35;97757.44;5086179;28;20270;-60
2023/10/20 08:21:03;;;;;;;17.70;11.57;;;;;;;16.83;93.76;97780.50;5092114;28;20205;-60
2023/10/20 08:23:28;;;;;;;20.77;11.18;;;;;;;16.67;93.24;97728.22;5091975;28;20171;-60
2023/10/20 08:25:54;;;;;;;17.63;10.73;;;;;;;16.96;91.71;97764.38;5091921;28;20184;-60
2023/10/20 08:28:19;;;;;;;20.60;10.15;;;;;;;16.81;90.99;97726.78;5092150;28;20178;-60
2023/10/20 08:30:44;;;;;;;16.45;10.63;;;;;;;17.08;91.00;97763.91;5092186;28;20176;-60
2023/10/20 08:33:10;;;;;;;21.35;11.23;;;;;;;17.14;91.07;97767.69;5091723;28;20540;-60
2023/10/20 08:35:37;;;;;;;15.18;11.02;;;;;;;17.10;91.01;97748.06;5048665;28;20213;-60
2023/10/20 08:38:03;;;;;;;21.10;12.05;;;;;;;17.31;90.35;97766.72;5049125;28;20527;-60
2023/10/20 08:40:33;;;;;;;16.55;10.32;;;;;;;17.37;89.93;97768.69;5049421;28;20804;-60
2023/10/20 08:43:02;;;;;;;20.17;11.57;;;;;;;17.44;89.53;97764.47;5049153;28;20347;-60
2023/10/20 08:45:34;;;;;;;22.15;12.60;;;;;;;17.57;88.32;97778.72;4989439;28;20298;-60
2023/10/20 08:48:02;;;;;;;21.77;12.32;;;;;;;17.56;87.38;97763.16;4989849;28;20657;-60
2023/10/20 08:50:31;;;;;;;22.63;12.60;;;;;;;17.61;86.38;97787.84;4989608;28;20243;-60
2023/10/20 08:52:58;;;;;;;21.42;11.23;;;;;;;17.37;87.39;97776.53;4989693;28;20203;-60
2023/10/20 08:55:24;;;;;;;21.52;12.10;;;;;;;17.04;88.50;97743.47;4989385;28;20243;-60
2023/10/20 08:57:49;;;;;;;24.45;12.10;;;;;;;17.21;89.71;97769.47;4989623;28;20690;-60
2023/10/20 09:00:20;;;;;;;21.60;11.52;;;;;;;17.03;88.61;97750.50;4989505;28;20432;-60
2023/10/20 09:02:47;;;;;;;21.00;11.70;;;;;;;17.26;87.96;97748.09;4989537;28;20187;-59
2023/10/20 09:05:21;;;;;;;18.83;11.73;;;;;;;17.32;87.53;97744.81;4989466;28;20195;-59
2023/10/20 09:07:51;;;;;;;17.85;11.88;;;;;;;17.52;87.12;97759.22;5028460;28;20196;-60
2023/10/20 09:10:17;;;;;;;17.40;11.43;;;;;;;17.73;85.42;97783.13;5028639;28;20190;-60
2023/10/20 09:12:42;;;;;;;15.80;11.40;;;;;;;17.79;83.93;97780.63;5028688;28;20177;-60
2023/10/20 09:15:09;;;;;;;18.58;11.38;;;;;;;17.65;84.77;97747.28;5028562;28;20205;-60
2023/10/20 09:17:35;;;;;;;19.30;11.57;;;;;;;17.86;83.25;97770.34;5067494;28;20297;-60
2023/10/20 09:20:11;;;;;;;22.27;11.27;;;;;;;17.94;83.43;97771.13;5068586;28;20184;-59
2023/10/20 09:22:38;;;;;;;17.13;11.57;;;;;;;18.00;83.97;97767.03;5077106;28;20658;-60
2023/10/20 09:25:10;;;;;;;14.95;11.30;;;;;;;18.08;84.27;97769.66;5028430;28;20197;-61
2023/10/20 09:27:39;;;;;;;21.30;11.68;;;;;;;18.15;84.31;97765.38;5028603;28;20182;-60
2023/10/20 09:30:08;;;;;;;21.20;11.48;;;;;;;18.07;83.34;97742.63;5028403;28;20668;-60
2023/10/20 09:32:38;;;;;;;15.80;11.82;;;;;;;18.12;82.44;97736.91;5027242;28;20186;-60
2023/10/20 09:35:04;;;;;;;16.67;11.10;;;;;;;18.27;82.74;97753.53;5026993;28;20348;-60
2023/10/20 09:37:30;;;;;;;17.80;11.57;;;;;;;18.44;82.20;97770.88;5028563;28;20186;-60
2023/10/20 09:40:05;;;;;;;20.13;10.35;;;;;;;18.52;82.27;97768.22;5028478;28;20215;-60
2023/10/20 09:42:54;;;;;;;20.23;10.75;;;;;;;18.60;81.43;97765.59;5028638;28;20189;-60
2023/10/20 09:45:27;;;;;;;19.35;11.48;;;;;;;18.43;81.34;97727.34;4969728;28;20211;-61
2023/10/20 09:47:57;;;;;;;18.00;10.63;;;;;;;18.52;80.92;97726.28;4969693;28;20623;-60
2023/10/20 09:50:24;;;;;;;18.90;10.85;;;;;;;18.62;79.61;97725.13;4969695;28;20200;-60
2023/10/20 09:52:50;;;;;;;14.65;9.57;;;;;;;18.79;79.53;97738.94;4950139;29;20259;-60
2023/10/20 09:55:19;;;;;;;16.88;10.63;;;;;;;18.87;79.48;97741.50;4950020;29;20220;-61
2023/10/20 09:57:47;;;;;;;17.70;10.80;;;;;;;18.90;78.29;97730.69;4950252;29;20714;-60
2023/10/20 10:00:12;;;;;;;15.30;10.50;;;;;;;18.83;78.56;97709.59;4950287;29;20211;-60
2023/10/20 10:02:38;;;;;;;21.65;10.80;;;;;;;18.98;77.93;97744.56;4974819;28;20653;-60
2023/10/20 10:05:08;;;;;;;14.70;11.50;;;;;;;18.86;78.17;97745.13;4992932;28;20321;-60
2023/10/20 10:07:34;;;;;;;13.25;10.07;;;;;;;18.97;79.65;97747.34;4992875;28;20190;-60
2023/10/20 10:10:00;;;;;;;16.17;10.88;;;;;;;19.05;79.27;97735.00;4992784;28;20191;-60
2023/10/20 10:12:27;;;;;;;16.65;11.23;;;;;;;18.99;78.51;97709.50;4992792;28;20202;-60
2023/10/20 10:15:07;;;;;;;13.57;10.55;;;;;;;19.08;78.31;97715.50;4992429;28;20312;-60
2023/10/20 10:17:48;;;;;;;14.45;10.27;;;;;;;19.25;78.40;97730.16;4992602;28;20183;-60
2023/10/20 10:20:43;;;;;;;14.85;10.20;;;;;;;19.46;75.94;97730.34;4992768;28;20777;-60
2023/10/20 10:23:14;;;;;;;17.08;9.27;;;;;;;19.43;76.09;97718.38;5038615;28;20250;-60
2023/10/20 10:25:47;;;;;;;14.25;10.95;;;;;;;19.45;76.06;97705.06;5094571;28;20199;-60
2023/10/20 10:28:13;;;;;;;11.98;9.70;;;;;;;19.70;75.35;97714.38;5094513;28;20168;-60
2023/10/20 10:30:40;;;;;;;14.27;9.85;;;;;;;19.98;75.17;97749.50;5094572;28;20602;-60
2023/10/20 10:33:11;;;;;;;13.98;9.23;;;;;;;20.09;72.83;97718.41;5094417;28;20168;-60
2023/10/20 10:35:38;;;;;;;14.13;9.23;;;;;;;20.33;72.01;97744.41;5094482;28;20200;-60
2023/10/20 10:38:06;;;;;;;14.77;10.65;;;;;;;20.39;72.08;97743.69;5094017;28;20168;-61
2023/10/20 10:40:32;;;;;;;17.50;10.27;;;;;;;20.36;72.29;97730.09;5093914;28;20190;-60
2023/10/20 10:42:57;;;;;;;14.02;9.90;;;;;;;20.32;71.96;97705.16;5094170;28;20176;-60
2023/10/20 10:45:29;;;;;;;14.20;9.70;;;;;;;20.35;71.66;97696.94;5094121;28;20176;-60
2023/10/20 10:48:11;;;;;;;12.95;9.23;;;;;;;20.65;71.28;97716.91;5094028;28;20535;-60
2023/10/20 10:50:42;;;;;;;13.23;9.45;;;;;;;20.73;70.86;97716.78;5094046;28;20203;-61
2023/10/20 10:53:08;;;;;;;16.25;9.02;;;;;;;20.66;70.44;97692.25;5093997;28;20179;-60
2023/10/20 10:55:37;;;;;;;14.88;8.80;;;;;;;20.75;69.00;97704.31;5094080;28;20383;-60
2023/10/20 10:58:06;;;;;;;14.68;9.75;;;;;;;20.71;68.57;97697.78;5094041;28;20175;-60
2023/10/20 11:00:32;;;;;;;13.63;9.00;;;;;;;20.71;68.72;97687.25;5093874;28;20179;-61
2023/10/20 11:02:58;;;;;;;15.18;8.93;;;;;;;20.94;69.66;97695.81;5093764;28;20597;-61
2023/10/20 11:05:24;;;;;;;13.10;9.73;;;;;;;21.03;68.38;97697.34;5093772;28;20176;-61
2023/10/20 11:08:01;;;;;;;16.10;9.98;;;;;;;21.05;69.39;97682.19;5093745;28;20538;-61
2023/10/20 11:10:28;;;;;;;13.93;9.00;;;;;;;21.14;67.74;97681.03;5093694;28;20171;-61
2023/10/20 11:12:58;;;;;;;12.13;9.13;;;;;;;21.22;68.08;97696.72;5092643;28;20255;-61
2023/10/20 11:15:28;;;;;;;13.25;9.35;;;;;;;21.35;67.47;97686.31;5093674;28;20604;-61
2023/10/20 11:17:59;;;;;;;17.23;9.52;;;;;;;21.08;66.77;97656.31;5030761;28;20197;-59
2023/10/20 11:20:24;;;;;;;11.25;8.65;;;;;;;21.19;66.43;97660.25;5030922;28;20680;-60
2023/10/20 11:22:54;;;;;;;16.15;9.18;;;;;;;21.39;66.57;97684.94;5030743;28;20270;-60
2023/10/20 11:25:20;;;;;;;10.32;9.05;;;;;;;21.24;67.27;97642.06;5030813;28;20225;-60
2023/10/20 11:27:57;;;;;;;11.07;8.77;;;;;;;21.53;67.15;97673.47;5030842;28;20221;-60
2023/10/20 11:30:27;;;;;;;14.18;8.98;;;;;;;21.63;67.11;97681.88;5030812;28;20173;-60
2023/10/20 11:32:55;;;;;;;13.43;8.57;;;;;;;21.68;66.39;97682.16;5030573;28;20348;-60
2023/10/20 11:35:24;;;;;;;11.32;8.35;;;;;;;21.67;64.46;97667.31;5030530;28;20216;-60
2023/10/20 11:37:51;;;;;;;13.52;8.25;;;;;;;21.67;64.50;97656.81;5030589;28;20186;-60
2023/10/20 11:40:16;;;;;;;11.95;8.82;;;;;;;21.61;64.51;97642.56;5030564;28;20244;-60
2023/10/20 11:42:42;;;;;;;20.80;9.13;;;;;;;21.70;64.39;97656.44;5030460;28;20567;-60
2023/10/20 11:45:10;;;;;;;11.85;8.70;;;;;;;21.68;64.94;97650.56;5030496;28;20730;-60
2023/10/20 11:47:36;;;;;;;11.10;8.10;;;;;;;21.75;64.21;97638.22;5030487;28;20178;-60
2023/10/20 11:50:02;;;;;;;9.57;8.65;;;;;;;21.92;63.64;97663.25;5091163;28;20190;-60
2023/10/20 11:52:28;;;;;;;9.98;8.18;;;;;;;21.97;62.39;97660.88;5092786;28;20168;-60
2023/10/20 11:54:53;;;;;;;11.88;7.82;;;;;;;21.85;63.44;97646.63;5092809;28;20176;-61
2023/10/20 11:57:19;;;;;;;12.25;8.25;;;;;;;22.00;64.21;97668.38;5103096;28;20265;-59
2023/10/20 11:59:44;;;;;;;12.57;8.13;;;;;;;21.90;63.19;97652.91;5112925;28;20183;-60